TWB11 RKPC-RJFF
Flight info
| Callsign | TWB11 |
|---|---|
| Flight time | 0h 54m |
| Altitude | 17000 |
| Route | TAMNA2E TAMNA Y677 SAMDO A595 IKE |
| Aircraft | B738/M-SDE2E3FGHIRWXY/LB1 |
Departure
| Time | 2026-04-28 03:13 |
|---|---|
| Airport | Jeju International Airport (RKPC) |
Arrival
| Time | 2026-04-28 04:07 |
|---|---|
| Airport | Fukuoka Airport (RJFF) |
| Time | Latitude | Longitude | Altitude | Speed | Heading |
|---|---|---|---|---|---|
| 2026-04-28 02:59 | 33.50631 | 126.49049 | 87 ft | 0 kts | 149° |
| 2026-04-28 03:06 | 33.50638 | 126.49044 | 91 ft | 4 kts | 148° |
| 2026-04-28 03:06 | 33.50661 | 126.49026 | 87 ft | 4 kts | 141° |
| 2026-04-28 03:07 | 33.50680 | 126.49004 | 90 ft | 4 kts | 130° |
| 2026-04-28 03:07 | 33.50694 | 126.48983 | 91 ft | 1 kts | 119° |
| 2026-04-28 03:07 | 33.50696 | 126.48979 | 91 ft | 0 kts | 119° |
| 2026-04-28 03:09 | 33.50702 | 126.48985 | 91 ft | 3 kts | 32° |
| 2026-04-28 03:09 | 33.50747 | 126.49034 | 87 ft | 13 kts | 54° |
| 2026-04-28 03:10 | 33.50796 | 126.49132 | 90 ft | 15 kts | 59° |
| 2026-04-28 03:10 | 33.50850 | 126.49241 | 90 ft | 16 kts | 59° |
| 2026-04-28 03:10 | 33.50907 | 126.49352 | 89 ft | 16 kts | 60° |
| 2026-04-28 03:10 | 33.50962 | 126.49463 | 86 ft | 15 kts | 57° |
| 2026-04-28 03:11 | 33.51018 | 126.49568 | 85 ft | 15 kts | 54° |
| 2026-04-28 03:11 | 33.51102 | 126.49628 | 87 ft | 14 kts | 15° |
| 2026-04-28 03:11 | 33.51192 | 126.49607 | 87 ft | 13 kts | 335° |
| 2026-04-28 03:11 | 33.51274 | 126.49560 | 91 ft | 13 kts | 332° |
| 2026-04-28 03:12 | 33.51329 | 126.49480 | 90 ft | 12 kts | 289° |
| 2026-04-28 03:12 | 33.51301 | 126.49389 | 89 ft | 13 kts | 234° |
| 2026-04-28 03:12 | 33.51094 | 126.48984 | 88 ft | 107 kts | 239° |
| 2026-04-28 03:12 | 33.50562 | 126.47927 | 232 ft | 180 kts | 240° |
| 2026-04-28 03:13 | 33.49874 | 126.46569 | 1150 ft | 201 kts | 242° |
| 2026-04-28 03:13 | 33.49121 | 126.45111 | 2235 ft | 212 kts | 241° |
| 2026-04-28 03:13 | 33.48296 | 126.43528 | 2640 ft | 235 kts | 240° |
| 2026-04-28 03:13 | 33.47393 | 126.41786 | 3026 ft | 256 kts | 241° |
| 2026-04-28 03:14 | 33.46446 | 126.39957 | 3888 ft | 258 kts | 241° |
| 2026-04-28 03:14 | 33.45504 | 126.38136 | 4941 ft | 255 kts | 242° |
| 2026-04-28 03:14 | 33.44518 | 126.36375 | 5927 ft | 258 kts | 230° |
| 2026-04-28 03:14 | 33.42916 | 126.35293 | 6764 ft | 273 kts | 195° |
| 2026-04-28 03:15 | 33.41024 | 126.35172 | 7560 ft | 280 kts | 183° |
| 2026-04-28 03:15 | 33.39065 | 126.35238 | 8299 ft | 284 kts | 182° |
| 2026-04-28 03:15 | 33.37077 | 126.35306 | 9070 ft | 287 kts | 182° |
| 2026-04-28 03:15 | 33.35063 | 126.35360 | 9871 ft | 290 kts | 182° |
| 2026-04-28 03:16 | 33.33023 | 126.35606 | 10459 ft | 308 kts | 167° |
| 2026-04-28 03:16 | 33.31085 | 126.36961 | 10606 ft | 343 kts | 137° |
| 2026-04-28 03:16 | 33.29761 | 126.39447 | 10782 ft | 371 kts | 110° |
| 2026-04-28 03:16 | 33.29459 | 126.42562 | 11166 ft | 386 kts | 83° |
| 2026-04-28 03:17 | 33.30117 | 126.45696 | 11786 ft | 391 kts | 72° |
| 2026-04-28 03:17 | 33.31341 | 126.52142 | 12974 ft | 407 kts | 82° |
| 2026-04-28 03:17 | 33.31743 | 126.55518 | 13611 ft | 412 kts | 82° |
| 2026-04-28 03:18 | 33.32410 | 126.58874 | 14100 ft | 420 kts | 70° |
| 2026-04-28 03:18 | 33.33570 | 126.62106 | 14663 ft | 425 kts | 58° |
| 2026-04-28 03:18 | 33.35205 | 126.65041 | 15437 ft | 423 kts | 51° |
| 2026-04-28 03:18 | 33.36894 | 126.67860 | 16121 ft | 427 kts | 52° |
| 2026-04-28 03:19 | 33.38563 | 126.70902 | 16788 ft | 431 kts | 58° |
| 2026-04-28 03:19 | 33.39786 | 126.74177 | 17056 ft | 436 kts | 70° |
| 2026-04-28 03:19 | 33.40512 | 126.77769 | 17068 ft | 454 kts | 81° |
| 2026-04-28 03:19 | 33.40919 | 126.81585 | 17102 ft | 469 kts | 83° |
| 2026-04-28 03:20 | 33.41337 | 126.85513 | 17342 ft | 480 kts | 82° |
| 2026-04-28 03:20 | 33.41798 | 126.89441 | 17806 ft | 484 kts | 81° |
| 2026-04-28 03:20 | 33.42287 | 126.93427 | 18407 ft | 485 kts | 81° |
| 2026-04-28 03:20 | 33.42779 | 126.97413 | 18924 ft | 483 kts | 81° |
| 2026-04-28 03:21 | 33.43270 | 127.01392 | 19077 ft | 483 kts | 81° |
| 2026-04-28 03:21 | 33.43758 | 127.05374 | 19062 ft | 483 kts | 81° |
| 2026-04-28 03:21 | 33.44241 | 127.09344 | 19064 ft | 482 kts | 81° |
| 2026-04-28 03:21 | 33.44723 | 127.13316 | 19062 ft | 483 kts | 81° |
| 2026-04-28 03:22 | 33.45204 | 127.17300 | 19057 ft | 483 kts | 81° |
| 2026-04-28 03:22 | 33.45684 | 127.21278 | 19057 ft | 483 kts | 81° |
| 2026-04-28 03:22 | 33.46162 | 127.25261 | 19042 ft | 483 kts | 81° |
| 2026-04-28 03:22 | 33.46639 | 127.29240 | 19048 ft | 483 kts | 81° |
| 2026-04-28 03:23 | 33.47116 | 127.33226 | 19051 ft | 483 kts | 81° |
| 2026-04-28 03:23 | 33.47589 | 127.37206 | 19049 ft | 483 kts | 81° |
| 2026-04-28 03:23 | 33.48061 | 127.41193 | 19048 ft | 483 kts | 81° |
| 2026-04-28 03:23 | 33.48530 | 127.45176 | 19049 ft | 483 kts | 81° |
| 2026-04-28 03:24 | 33.48998 | 127.49157 | 19049 ft | 483 kts | 81° |
| 2026-04-28 03:24 | 33.49467 | 127.53161 | 19045 ft | 483 kts | 81° |
| 2026-04-28 03:24 | 33.49934 | 127.57148 | 19046 ft | 483 kts | 81° |
| 2026-04-28 03:24 | 33.50398 | 127.61132 | 19047 ft | 483 kts | 81° |
| 2026-04-28 03:25 | 33.50862 | 127.65119 | 19043 ft | 483 kts | 81° |
| 2026-04-28 03:25 | 33.51325 | 127.69107 | 19043 ft | 483 kts | 81° |
| 2026-04-28 03:25 | 33.51786 | 127.73093 | 19039 ft | 483 kts | 82° |
| 2026-04-28 03:25 | 33.52245 | 127.77073 | 19044 ft | 483 kts | 82° |
| 2026-04-28 03:26 | 33.52704 | 127.81067 | 19045 ft | 483 kts | 82° |
| 2026-04-28 03:26 | 33.53161 | 127.85055 | 19042 ft | 483 kts | 82° |
| 2026-04-28 03:26 | 33.53617 | 127.89043 | 19040 ft | 483 kts | 82° |
| 2026-04-28 03:26 | 33.54072 | 127.93036 | 19055 ft | 483 kts | 82° |
| 2026-04-28 03:27 | 33.54527 | 127.97035 | 19047 ft | 484 kts | 82° |
| 2026-04-28 03:27 | 33.54974 | 128.00980 | 19034 ft | 484 kts | 82° |
| 2026-04-28 03:27 | 33.55426 | 128.04979 | 19033 ft | 484 kts | 82° |
| 2026-04-28 03:27 | 33.55876 | 128.08973 | 19035 ft | 483 kts | 82° |
| 2026-04-28 03:28 | 33.56325 | 128.12968 | 19037 ft | 483 kts | 82° |
| 2026-04-28 03:28 | 33.56772 | 128.16961 | 19033 ft | 483 kts | 82° |
| 2026-04-28 03:28 | 33.57218 | 128.20959 | 19025 ft | 483 kts | 82° |
| 2026-04-28 03:28 | 33.57663 | 128.24951 | 19030 ft | 483 kts | 82° |
| 2026-04-28 03:29 | 33.58106 | 128.28938 | 19031 ft | 483 kts | 82° |
| 2026-04-28 03:29 | 33.58550 | 128.32929 | 19035 ft | 483 kts | 82° |
| 2026-04-28 03:29 | 33.59009 | 128.36925 | 19050 ft | 483 kts | 81° |
| 2026-04-28 03:29 | 33.59478 | 128.40908 | 19040 ft | 483 kts | 81° |
| 2026-04-28 03:30 | 33.59951 | 128.44897 | 19033 ft | 483 kts | 81° |
| 2026-04-28 03:30 | 33.60422 | 128.48890 | 19032 ft | 484 kts | 81° |
| 2026-04-28 03:30 | 33.60891 | 128.52887 | 19032 ft | 483 kts | 81° |
| 2026-04-28 03:30 | 33.61357 | 128.56877 | 19032 ft | 483 kts | 81° |
| 2026-04-28 03:31 | 33.61821 | 128.60882 | 19030 ft | 483 kts | 81° |
| 2026-04-28 03:31 | 33.62282 | 128.64872 | 19027 ft | 483 kts | 81° |
| 2026-04-28 03:31 | 33.62741 | 128.68865 | 19019 ft | 483 kts | 82° |
| 2026-04-28 03:31 | 33.63199 | 128.72861 | 19024 ft | 483 kts | 82° |
| 2026-04-28 03:32 | 33.63656 | 128.76851 | 19027 ft | 483 kts | 82° |
| 2026-04-28 03:32 | 33.64110 | 128.80837 | 19038 ft | 484 kts | 82° |
| 2026-04-28 03:32 | 33.64566 | 128.84843 | 19033 ft | 484 kts | 82° |
| 2026-04-28 03:32 | 33.65021 | 128.88855 | 19031 ft | 484 kts | 82° |
| 2026-04-28 03:33 | 33.65474 | 128.92860 | 19020 ft | 484 kts | 82° |
| 2026-04-28 03:33 | 33.65925 | 128.96861 | 19021 ft | 484 kts | 82° |
| 2026-04-28 03:33 | 33.66375 | 129.00866 | 19023 ft | 484 kts | 82° |
| 2026-04-28 03:33 | 33.66823 | 129.04864 | 19022 ft | 484 kts | 82° |
| 2026-04-28 03:34 | 33.67259 | 129.08766 | 19008 ft | 471 kts | 82° |
| 2026-04-28 03:34 | 33.67691 | 129.12652 | 18998 ft | 458 kts | 82° |
| 2026-04-28 03:34 | 33.68100 | 129.16333 | 19002 ft | 443 kts | 82° |
| 2026-04-28 03:34 | 33.68499 | 129.19932 | 19021 ft | 428 kts | 82° |
| 2026-04-28 03:35 | 33.68885 | 129.23419 | 19006 ft | 415 kts | 82° |
| 2026-04-28 03:35 | 33.69256 | 129.26792 | 18999 ft | 401 kts | 82° |
| 2026-04-28 03:35 | 33.69616 | 129.30054 | 18997 ft | 387 kts | 82° |
| 2026-04-28 03:35 | 33.69964 | 129.33206 | 18944 ft | 375 kts | 82° |
| 2026-04-28 03:36 | 33.70302 | 129.36270 | 18868 ft | 365 kts | 82° |
| 2026-04-28 03:36 | 33.70631 | 129.39254 | 18734 ft | 358 kts | 82° |
| 2026-04-28 03:36 | 33.70964 | 129.42272 | 17927 ft | 373 kts | 83° |
| 2026-04-28 03:36 | 33.71313 | 129.45458 | 16787 ft | 397 kts | 83° |
| 2026-04-28 03:37 | 33.71682 | 129.48833 | 15681 ft | 415 kts | 83° |
| 2026-04-28 03:37 | 33.72059 | 129.52297 | 15028 ft | 420 kts | 83° |
| 2026-04-28 03:37 | 33.72436 | 129.55754 | 14630 ft | 415 kts | 84° |
| 2026-04-28 03:37 | 33.72780 | 129.58923 | 14293 ft | 409 kts | 84° |
| 2026-04-28 03:38 | 33.73156 | 129.62384 | 13893 ft | 403 kts | 84° |
| 2026-04-28 03:38 | 33.73514 | 129.65704 | 13407 ft | 398 kts | 84° |
| 2026-04-28 03:38 | 33.73867 | 129.68983 | 12992 ft | 392 kts | 84° |
| 2026-04-28 03:38 | 33.74210 | 129.72174 | 12877 ft | 379 kts | 84° |
| 2026-04-28 03:39 | 33.74537 | 129.75217 | 12783 ft | 366 kts | 84° |
| 2026-04-28 03:39 | 33.74930 | 129.78182 | 12670 ft | 355 kts | 75° |
| 2026-04-28 03:39 | 33.75785 | 129.80925 | 12543 ft | 345 kts | 66° |
| 2026-04-28 03:39 | 33.76752 | 129.83507 | 12471 ft | 333 kts | 65° |
| 2026-04-28 03:40 | 33.77702 | 129.86004 | 12335 ft | 325 kts | 65° |
| 2026-04-28 03:40 | 33.78627 | 129.88460 | 12074 ft | 322 kts | 65° |
| 2026-04-28 03:40 | 33.79537 | 129.90915 | 11748 ft | 321 kts | 65° |
| 2026-04-28 03:40 | 33.80434 | 129.93364 | 11447 ft | 320 kts | 65° |
| 2026-04-28 03:41 | 33.81320 | 129.95805 | 11172 ft | 317 kts | 65° |
| 2026-04-28 03:41 | 33.82197 | 129.98233 | 10880 ft | 316 kts | 65° |
| 2026-04-28 03:41 | 33.83067 | 130.00650 | 10600 ft | 314 kts | 65° |
| 2026-04-28 03:41 | 33.83930 | 130.03054 | 10317 ft | 312 kts | 65° |
| 2026-04-28 03:42 | 33.84788 | 130.05447 | 10054 ft | 310 kts | 65° |
| 2026-04-28 03:42 | 33.85641 | 130.07827 | 9764 ft | 309 kts | 65° |
| 2026-04-28 03:42 | 33.86482 | 130.10175 | 9461 ft | 307 kts | 65° |
| 2026-04-28 03:42 | 33.87340 | 130.12572 | 8949 ft | 313 kts | 65° |
| 2026-04-28 03:43 | 33.88206 | 130.15002 | 8451 ft | 318 kts | 67° |
| 2026-04-28 03:43 | 33.88575 | 130.17586 | 8200 ft | 309 kts | 98° |
| 2026-04-28 03:43 | 33.87901 | 130.19937 | 7944 ft | 292 kts | 124° |
| 2026-04-28 03:43 | 33.86679 | 130.21839 | 7475 ft | 285 kts | 137° |
| 2026-04-28 03:44 | 33.85311 | 130.23584 | 7070 ft | 288 kts | 138° |
| 2026-04-28 03:44 | 33.83941 | 130.25324 | 6841 ft | 285 kts | 137° |
| 2026-04-28 03:44 | 33.82600 | 130.27053 | 6690 ft | 277 kts | 138° |
| 2026-04-28 03:44 | 33.81319 | 130.28722 | 6455 ft | 265 kts | 137° |
| 2026-04-28 03:45 | 33.80082 | 130.30288 | 6178 ft | 250 kts | 145° |
| 2026-04-28 03:45 | 33.78721 | 130.31414 | 6010 ft | 228 kts | 156° |
| 2026-04-28 03:45 | 33.77340 | 130.32355 | 5536 ft | 228 kts | 156° |
| 2026-04-28 03:45 | 33.75972 | 130.33272 | 5173 ft | 223 kts | 156° |
| 2026-04-28 03:46 | 33.74623 | 130.34166 | 4793 ft | 218 kts | 155° |
| 2026-04-28 03:46 | 33.73329 | 130.35035 | 4512 ft | 209 kts | 156° |
| 2026-04-28 03:46 | 33.72054 | 130.35893 | 4007 ft | 211 kts | 155° |
| 2026-04-28 03:46 | 33.70771 | 130.36754 | 3503 ft | 211 kts | 155° |
| 2026-04-28 03:47 | 33.69528 | 130.37600 | 3275 ft | 198 kts | 154° |
| 2026-04-28 03:47 | 33.68333 | 130.38416 | 2886 ft | 196 kts | 155° |
| 2026-04-28 03:47 | 33.67173 | 130.39208 | 2515 ft | 192 kts | 155° |
| 2026-04-28 03:47 | 33.66047 | 130.39977 | 2227 ft | 181 kts | 155° |
| 2026-04-28 03:48 | 33.64981 | 130.40706 | 1914 ft | 170 kts | 155° |
| 2026-04-28 03:48 | 33.63949 | 130.41419 | 1402 ft | 174 kts | 155° |
| 2026-04-28 03:48 | 33.62905 | 130.42153 | 932 ft | 174 kts | 152° |
| 2026-04-28 03:48 | 33.61942 | 130.42866 | 934 ft | 148 kts | 153° |
| 2026-04-28 03:49 | 33.61008 | 130.43565 | 1260 ft | 171 kts | 154° |
| 2026-04-28 03:49 | 33.59993 | 130.44361 | 1959 ft | 179 kts | 155° |
| 2026-04-28 03:49 | 33.58805 | 130.45103 | 2348 ft | 206 kts | 160° |
| 2026-04-28 03:49 | 33.57426 | 130.45887 | 2581 ft | 230 kts | 159° |
| 2026-04-28 03:50 | 33.55893 | 130.46476 | 3140 ft | 232 kts | 175° |
| 2026-04-28 03:50 | 33.54282 | 130.46454 | 3790 ft | 232 kts | 193° |
| 2026-04-28 03:50 | 33.52784 | 130.45779 | 4643 ft | 230 kts | 219° |
| 2026-04-28 03:50 | 33.51889 | 130.44254 | 5464 ft | 228 kts | 255° |
| 2026-04-28 03:51 | 33.51870 | 130.42382 | 5897 ft | 225 kts | 277° |
| 2026-04-28 03:51 | 33.52114 | 130.41154 | 5982 ft | 237 kts | 286° |
| 2026-04-28 03:51 | 33.52735 | 130.39254 | 6017 ft | 248 kts | 290° |
| 2026-04-28 03:51 | 33.53443 | 130.37341 | 6045 ft | 253 kts | 291° |
| 2026-04-28 03:52 | 33.54170 | 130.35403 | 5998 ft | 255 kts | 291° |
| 2026-04-28 03:52 | 33.54891 | 130.33475 | 5982 ft | 251 kts | 291° |
| 2026-04-28 03:52 | 33.55588 | 130.31585 | 5993 ft | 246 kts | 291° |
| 2026-04-28 03:52 | 33.56272 | 130.29713 | 6018 ft | 245 kts | 291° |
| 2026-04-28 03:53 | 33.56949 | 130.27832 | 6035 ft | 248 kts | 290° |
| 2026-04-28 03:53 | 33.57647 | 130.25899 | 6029 ft | 254 kts | 290° |
| 2026-04-28 03:53 | 33.58348 | 130.23954 | 6031 ft | 255 kts | 290° |
| 2026-04-28 03:53 | 33.59051 | 130.21997 | 6032 ft | 255 kts | 290° |
| 2026-04-28 03:54 | 33.59740 | 130.20074 | 6029 ft | 255 kts | 290° |
| 2026-04-28 03:54 | 33.60453 | 130.18079 | 6041 ft | 255 kts | 290° |
| 2026-04-28 03:54 | 33.61144 | 130.16142 | 6017 ft | 257 kts | 290° |
| 2026-04-28 03:54 | 33.61851 | 130.14159 | 6015 ft | 254 kts | 290° |
| 2026-04-28 03:55 | 33.62533 | 130.12245 | 6018 ft | 252 kts | 290° |
| 2026-04-28 03:55 | 33.63217 | 130.10321 | 6016 ft | 251 kts | 290° |
| 2026-04-28 03:55 | 33.63901 | 130.08396 | 6009 ft | 250 kts | 290° |
| 2026-04-28 03:55 | 33.64580 | 130.06483 | 6012 ft | 249 kts | 290° |
| 2026-04-28 03:56 | 33.65401 | 130.04659 | 5997 ft | 254 kts | 309° |
| 2026-04-28 03:56 | 33.66905 | 130.03498 | 6024 ft | 264 kts | 335° |
| 2026-04-28 03:56 | 33.68751 | 130.03156 | 6018 ft | 276 kts | 357° |
| 2026-04-28 03:56 | 33.70643 | 130.03668 | 6012 ft | 287 kts | 21° |
| 2026-04-28 03:57 | 33.72324 | 130.04987 | 6024 ft | 290 kts | 33° |
| 2026-04-28 03:57 | 33.73912 | 130.06496 | 6012 ft | 291 kts | 35° |
| 2026-04-28 03:57 | 33.75485 | 130.08024 | 5883 ft | 291 kts | 35° |
| 2026-04-28 03:57 | 33.77050 | 130.09539 | 5678 ft | 286 kts | 35° |
| 2026-04-28 03:58 | 33.78598 | 130.11027 | 5423 ft | 284 kts | 35° |
| 2026-04-28 03:58 | 33.80140 | 130.12497 | 5169 ft | 282 kts | 35° |
| 2026-04-28 03:58 | 33.81674 | 130.13953 | 4902 ft | 280 kts | 35° |
| 2026-04-28 03:58 | 33.83202 | 130.15401 | 4629 ft | 279 kts | 35° |
| 2026-04-28 03:59 | 33.84722 | 130.16841 | 4346 ft | 278 kts | 35° |
| 2026-04-28 03:59 | 33.86241 | 130.18279 | 4084 ft | 277 kts | 36° |
| 2026-04-28 03:59 | 33.87524 | 130.19996 | 3781 ft | 279 kts | 63° |
| 2026-04-28 03:59 | 33.87953 | 130.22223 | 3591 ft | 274 kts | 95° |
| 2026-04-28 04:00 | 33.87493 | 130.24394 | 3468 ft | 265 kts | 123° |
| 2026-04-28 04:00 | 33.86318 | 130.25996 | 3329 ft | 249 kts | 150° |
| 2026-04-28 04:00 | 33.84907 | 130.27059 | 3258 ft | 232 kts | 153° |
| 2026-04-28 04:00 | 33.83566 | 130.28016 | 3154 ft | 217 kts | 154° |
| 2026-04-28 04:01 | 33.82298 | 130.28889 | 3034 ft | 204 kts | 154° |
| 2026-04-28 04:01 | 33.81100 | 130.29709 | 2970 ft | 192 kts | 155° |
| 2026-04-28 04:01 | 33.79947 | 130.30495 | 2977 ft | 190 kts | 155° |
| 2026-04-28 04:01 | 33.78800 | 130.31275 | 2923 ft | 189 kts | 155° |
| 2026-04-28 04:02 | 33.77664 | 130.32050 | 2874 ft | 184 kts | 155° |
| 2026-04-28 04:02 | 33.76584 | 130.32788 | 2811 ft | 174 kts | 155° |
| 2026-04-28 04:02 | 33.75542 | 130.33498 | 2563 ft | 172 kts | 156° |
| 2026-04-28 04:02 | 33.74484 | 130.34219 | 2431 ft | 170 kts | 156° |
| 2026-04-28 04:03 | 33.73502 | 130.34891 | 2335 ft | 159 kts | 156° |
| 2026-04-28 04:03 | 33.72578 | 130.35522 | 2287 ft | 151 kts | 155° |
| 2026-04-28 04:03 | 33.71680 | 130.36133 | 2239 ft | 148 kts | 156° |
| 2026-04-28 04:03 | 33.70779 | 130.36746 | 2155 ft | 150 kts | 156° |
| 2026-04-28 04:04 | 33.69865 | 130.37369 | 2052 ft | 150 kts | 156° |
| 2026-04-28 04:04 | 33.68957 | 130.37991 | 2009 ft | 151 kts | 157° |
| 2026-04-28 04:04 | 33.68041 | 130.38614 | 1895 ft | 151 kts | 156° |
| 2026-04-28 04:04 | 33.67121 | 130.39242 | 1693 ft | 152 kts | 156° |
| 2026-04-28 04:05 | 33.66211 | 130.39864 | 1498 ft | 150 kts | 156° |
| 2026-04-28 04:05 | 33.65304 | 130.40497 | 1284 ft | 150 kts | 158° |
| 2026-04-28 04:05 | 33.64397 | 130.41112 | 1086 ft | 148 kts | 155° |
| 2026-04-28 04:05 | 33.63472 | 130.41684 | 869 ft | 153 kts | 155° |
| 2026-04-28 04:06 | 33.62565 | 130.42349 | 714 ft | 151 kts | 152° |
| 2026-04-28 04:06 | 33.61672 | 130.42954 | 470 ft | 143 kts | 153° |
| 2026-04-28 04:06 | 33.60834 | 130.43541 | 349 ft | 140 kts | 156° |
| 2026-04-28 04:06 | 33.60008 | 130.44106 | 152 ft | 131 kts | 153° |
| 2026-04-28 04:07 | 33.59243 | 130.44622 | 29 ft | 123 kts | 154° |
| 2026-04-28 04:07 | 33.58614 | 130.45048 | 35 ft | 76 kts | 150° |
| 2026-04-28 04:07 | 33.58325 | 130.45237 | 36 ft | 25 kts | 162° |
| 2026-04-28 04:07 | 33.58157 | 130.45261 | 36 ft | 24 kts | 183° |
| 2026-04-28 04:08 | 33.58135 | 130.45260 | 36 ft | 2 kts | 181° |
| 2026-04-28 04:08 | 33.58070 | 130.45257 | 36 ft | 16 kts | 184° |
| 2026-04-28 04:08 | 33.57973 | 130.45166 | 36 ft | 17 kts | 244° |
| 2026-04-28 04:08 | 33.57970 | 130.45091 | 35 ft | 3 kts | 323° |
| 2026-04-28 04:09 | 33.57997 | 130.45075 | 33 ft | 10 kts | 334° |
| 2026-04-28 04:09 | 33.58091 | 130.45015 | 36 ft | 17 kts | 330° |
| 2026-04-28 04:09 | 33.58193 | 130.44947 | 36 ft | 16 kts | 331° |
| 2026-04-28 04:09 | 33.58291 | 130.44881 | 37 ft | 16 kts | 330° |
| 2026-04-28 04:10 | 33.58385 | 130.44818 | 36 ft | 15 kts | 330° |
| 2026-04-28 04:10 | 33.58475 | 130.44758 | 36 ft | 15 kts | 332° |
| 2026-04-28 04:10 | 33.58562 | 130.44701 | 36 ft | 14 kts | 332° |
| 2026-04-28 04:10 | 33.58627 | 130.44658 | 36 ft | 0 kts | 315° |
| 2026-04-28 04:11 | 33.58629 | 130.44649 | 35 ft | 3 kts | 291° |
| 2026-04-28 04:11 | 33.58616 | 130.44603 | 34 ft | 8 kts | 238° |
| 2026-04-28 04:11 | 33.58593 | 130.44552 | 34 ft | 7 kts | 243° |
| 2026-04-28 04:11 | 33.58576 | 130.44514 | 31 ft | 2 kts | 241° |
| 2026-04-28 04:12 | 33.58570 | 130.44501 | 32 ft | 2 kts | 243° |
| 2026-04-28 04:12 | 33.58570 | 130.44499 | 32 ft | 0 kts | 242° |